Time,TemperatureF,DewpointF,PressureIn,WindDirection,WindDirectionDegrees,WindSpeedMPH,WindSpeedGustMPH,Humidity,HourlyPrecipIn,Conditions,Clouds,dailyrainin,SoftwareType,DateUTC
2013-01-09 00:03:00,22.0,-99.9,-100.00,North,0,0.0,0.0,-999,0.00,,,-99.99,,2013-01-09 07:03:00,
2013-01-09 00:12:00,22.0,-99.9,-100.00,North,0,0.0,0.0,-999,0.00,,,-99.99,,2013-01-09 07:12:00,
2013-01-09 00:22:00,23.0,-99.9,-100.00,North,0,0.0,0.0,-999,0.00,,,-99.99,,2013-01-09 07:22:00,
2013-01-09 00:32:00,24.0,-99.9,-100.00,North,0,0.0,0.0,-999,0.00,,,-99.99,,2013-01-09 07:32:00,
2013-01-09 00:43:00,24.0,-99.9,-100.00,North,0,0.0,0.0,-999,0.00,,,-99.99,,2013-01-09 07:43:00,
2013-01-09 00:53:00,23.0,-99.9,-100.00,North,0,0.0,0.0,-999,0.00,,,-99.99,,2013-01-09 07:53:00,
2013-01-09 01:02:00,22.0,-99.9,-100.00,North,0,0.0,0.0,-999,0.00,,,-99.99,,2013-01-09 08:02:00,
2013-01-09 01:12:00,22.0,-99.9,-100.00,North,0,0.0,0.0,-999,0.00,,,-99.99,,2013-01-09 08:12:00,
2013-01-09 01:22:00,23.0,-99.9,-100.00,North,0,0.0,0.0,-999,0.00,,,-99.99,,2013-01-09 08:22:00,
2013-01-09 01:33:00,23.0,-99.9,-100.00,North,0,0.0,0.0,-999,0.00,,,-99.99,,2013-01-09 08:33:00,
2013-01-09 01:43:00,23.0,-99.9,-100.00,North,0,0.0,0.0,-999,0.00,,,-99.99,,2013-01-09 08:43:00,
2013-01-09 01:53:00,24.0,-99.9,-100.00,North,0,0.0,0.0,-999,0.00,,,-99.99,,2013-01-09 08:53:00,
2013-01-09 02:03:00,24.0,-99.9,-100.00,North,0,0.0,0.0,-999,0.00,,,-99.99,,2013-01-09 09:03:00,
2013-01-09 02:12:00,24.0,-99.9,-100.00,North,0,0.0,0.0,-999,0.00,,,-99.99,,2013-01-09 09:12:00,
2013-01-09 02:22:00,26.0,-99.9,-100.00,North,0,0.0,0.0,-999,0.00,,,-99.99,,2013-01-09 09:22:00,
2013-01-09 02:32:00,26.0,-99.9,-100.00,North,0,0.0,0.0,-999,0.00,,,-99.99,,2013-01-09 09:32:00,
2013-01-09 02:42:00,26.0,-99.9,-100.00,North,0,0.0,0.0,-999,0.00,,,-99.99,,2013-01-09 09:42:00,
2013-01-09 02:54:00,26.0,-99.9,-100.00,North,0,0.0,0.0,-999,0.00,,,-99.99,,2013-01-09 09:54:00,
2013-01-09 03:02:00,26.0,-99.9,-100.00,North,0,0.0,0.0,-999,0.00,,,-99.99,,2013-01-09 10:02:00,
2013-01-09 03:12:00,26.0,-99.9,-100.00,North,0,0.0,0.0,-999,0.00,,,-99.99,,2013-01-09 10:12:00,
2013-01-09 03:22:00,25.0,-99.9,-100.00,North,0,0.0,0.0,-999,0.00,,,-99.99,,2013-01-09 10:22:00,
2013-01-09 03:32:00,24.0,-99.9,-100.00,North,0,0.0,0.0,-999,0.00,,,-99.99,,2013-01-09 10:32:00,
2013-01-09 03:42:00,24.0,-99.9,-100.00,North,0,0.0,0.0,-999,0.00,,,-99.99,,2013-01-09 10:42:00,
2013-01-09 03:53:00,24.0,-99.9,-100.00,SW,219,1.0,4.0,-999,0.00,,,-99.99,,2013-01-09 10:53:00,
2013-01-09 04:02:00,23.0,-99.9,-100.00,North,0,0.0,0.0,-999,0.00,,,-99.99,,2013-01-09 11:02:00,
2013-01-09 04:12:00,23.0,-99.9,-100.00,North,0,0.0,0.0,-999,0.00,,,-99.99,,2013-01-09 11:12:00,
2013-01-09 04:22:00,22.0,-99.9,-100.00,North,0,0.0,0.0,-999,0.00,,,-99.99,,2013-01-09 11:22:00,
2013-01-09 04:33:00,22.0,-99.9,-100.00,North,0,0.0,0.0,-999,0.00,,,-99.99,,2013-01-09 11:33:00,
2013-01-09 04:43:00,22.0,-99.9,-100.00,North,0,0.0,0.0,-999,0.00,,,-99.99,,2013-01-09 11:43:00,
2013-01-09 04:53:00,22.0,-99.9,-100.00,North,0,0.0,0.0,-999,0.00,,,-99.99,,2013-01-09 11:53:00,
2013-01-09 05:03:00,22.0,-99.9,-100.00,North,0,0.0,0.0,-999,0.00,,,-99.99,,2013-01-09 12:03:00,
2013-01-09 05:13:00,22.0,-99.9,-100.00,North,0,0.0,0.0,-999,0.00,,,-99.99,,2013-01-09 12:13:00,
2013-01-09 05:23:00,22.0,-99.9,-100.00,North,0,0.0,0.0,-999,0.00,,,-99.99,,2013-01-09 12:23:00,
2013-01-09 05:33:00,21.0,-99.9,-100.00,North,0,0.0,0.0,-999,0.00,,,-99.99,,2013-01-09 12:33:00,
2013-01-09 05:43:00,21.0,-99.9,-100.00,North,0,0.0,0.0,-999,0.00,,,-99.99,,2013-01-09 12:43:00,
2013-01-09 05:53:00,21.0,-99.9,-100.00,North,0,0.0,0.0,-999,0.00,,,-99.99,,2013-01-09 12:53:00,
2013-01-09 06:03:00,21.0,-99.9,-100.00,North,0,0.0,0.0,-999,0.00,,,-99.99,,2013-01-09 13:03:00,
2013-01-09 06:12:00,21.0,-99.9,-100.00,North,0,0.0,0.0,-999,0.00,,,-99.99,,2013-01-09 13:12:00,
2013-01-09 06:23:00,21.0,-99.9,-100.00,North,0,0.0,0.0,-999,0.00,,,-99.99,,2013-01-09 13:23:00,
2013-01-09 06:33:00,21.0,-99.9,-100.00,North,0,0.0,0.0,-999,0.00,,,-99.99,,2013-01-09 13:33:00,
2013-01-09 06:43:00,21.0,-99.9,-100.00,North,0,0.0,0.0,-999,0.00,,,-99.99,,2013-01-09 13:43:00,
2013-01-09 06:53:00,22.0,-99.9,-100.00,North,0,0.0,0.0,-999,0.00,,,-99.99,,2013-01-09 13:53:00,
2013-01-09 07:03:00,21.0,-99.9,-100.00,North,0,0.0,0.0,-999,0.00,,,-99.99,,2013-01-09 14:03:00,
2013-01-09 07:12:00,23.0,-99.9,-100.00,North,0,0.0,0.0,-999,0.00,,,-99.99,,2013-01-09 14:12:00,
2013-01-09 07:23:00,23.0,-99.9,-100.00,North,0,0.0,0.0,-999,0.00,,,-99.99,,2013-01-09 14:23:00,
2013-01-09 07:33:00,22.0,-99.9,-100.00,WSW,248,1.0,4.0,-999,0.00,,,-99.99,,2013-01-09 14:33:00,
2013-01-09 07:44:00,22.0,-99.9,-100.00,WSW,248,1.0,4.0,-999,0.00,,,-99.99,,2013-01-09 14:44:00,
2013-01-09 07:53:00,23.0,-99.9,-100.00,North,0,0.0,0.0,-999,0.00,,,-99.99,,2013-01-09 14:53:00,
2013-01-09 08:04:00,23.0,-99.9,-100.00,North,0,0.0,0.0,-999,0.00,,,-99.99,,2013-01-09 15:04:00,
2013-01-09 08:13:00,23.0,-99.9,-100.00,North,0,0.0,0.0,-999,0.00,,,-99.99,,2013-01-09 15:13:00,
2013-01-09 08:23:00,24.0,-99.9,-100.00,North,0,0.0,0.0,-999,0.00,,,-99.99,,2013-01-09 15:23:00,
2013-01-09 08:33:00,24.0,-99.9,-100.00,North,0,0.0,0.0,-999,0.00,,,-99.99,,2013-01-09 15:33:00,
2013-01-09 08:43:00,24.0,-99.9,-100.00,North,0,0.0,0.0,-999,0.00,,,-99.99,,2013-01-09 15:43:00,
2013-01-09 08:53:00,24.0,-99.9,-100.00,SW,228,2.0,5.0,-999,0.00,,,-99.99,,2013-01-09 15:53:00,
2013-01-09 09:04:00,24.0,-99.9,-100.00,North,0,0.0,0.0,-999,0.00,,,-99.99,,2013-01-09 16:04:00,
2013-01-09 09:13:00,24.0,-99.9,-100.00,North,0,0.0,0.0,-999,0.00,,,-99.99,,2013-01-09 16:13:00,
2013-01-09 09:23:00,25.0,-99.9,-100.00,North,0,0.0,0.0,-999,0.00,,,-99.99,,2013-01-09 16:23:00,
2013-01-09 09:34:00,25.0,-99.9,-100.00,SW,218,1.0,5.0,-999,0.00,,,-99.99,,2013-01-09 16:34:00,
2013-01-09 09:43:00,25.0,-99.9,-100.00,SW,218,1.0,5.0,-999,0.00,,,-99.99,,2013-01-09 16:43:00,
2013-01-09 09:53:00,26.0,-99.9,-100.00,WSW,240,6.0,7.0,-999,0.00,,,-99.99,,2013-01-09 16:53:00,
2013-01-09 10:03:00,26.0,-99.9,-100.00,WSW,240,5.0,7.0,-999,0.00,,,-99.99,,2013-01-09 17:03:00,
2013-01-09 10:12:00,26.0,-99.9,-100.00,WSW,240,5.0,7.0,-999,0.00,,,-99.99,,2013-01-09 17:12:00,
2013-01-09 10:23:00,27.0,-99.9,-100.00,WSW,255,2.0,6.0,-999,0.00,,,-99.99,,2013-01-09 17:23:00,
2013-01-09 10:33:00,28.0,-99.9,-100.00,North,0,0.0,0.0,-999,0.00,,,-99.99,,2013-01-09 17:33:00,
2013-01-09 10:43:00,28.0,-99.9,-100.00,North,0,0.0,0.0,-999,0.00,,,-99.99,,2013-01-09 17:43:00,
2013-01-09 10:54:00,29.0,-99.9,-100.00,North,0,0.0,0.0,-999,0.00,,,-99.99,,2013-01-09 17:54:00,
2013-01-09 11:03:00,30.0,-99.9,-100.00,WSW,256,1.0,4.0,-999,0.00,,,-99.99,,2013-01-09 18:03:00,
2013-01-09 11:13:00,30.0,-99.9,-100.00,WSW,256,1.0,4.0,-999,0.00,,,-99.99,,2013-01-09 18:13:00,
2013-01-09 11:24:00,33.0,-99.9,-100.00,North,0,0.0,0.0,-999,0.00,,,-99.99,,2013-01-09 18:24:00,
2013-01-09 11:33:00,33.0,-99.9,-100.00,West,260,3.0,5.0,-999,0.00,,,-99.99,,2013-01-09 18:33:00,
2013-01-09 11:44:00,33.0,-99.9,-100.00,West,260,3.0,5.0,-999,0.00,,,-99.99,,2013-01-09 18:44:00,
2013-01-09 11:53:00,34.0,-99.9,-100.00,West,259,6.0,6.0,-999,0.00,,,-99.99,,2013-01-09 18:53:00,
2013-01-09 12:03:00,35.0,-99.9,-100.00,WSW,243,5.0,6.0,-999,0.00,,,-99.99,,2013-01-09 19:03:00,
2013-01-09 12:13:00,35.0,-99.9,-100.00,WSW,243,5.0,6.0,-999,0.00,,,-99.99,,2013-01-09 19:13:00,
2013-01-09 12:23:00,35.0,-99.9,-100.00,WSW,253,3.0,7.0,-999,0.00,,,-99.99,,2013-01-09 19:23:00,
2013-01-09 12:33:00,34.0,-99.9,-100.00,WSW,253,2.0,5.0,-999,0.00,,,-99.99,,2013-01-09 19:33:00,
2013-01-09 12:43:00,34.0,-99.9,-100.00,WSW,253,2.0,5.0,-999,0.00,,,-99.99,,2013-01-09 19:43:00,
2013-01-09 12:53:00,35.0,-99.9,-100.00,SW,221,4.0,6.0,-999,0.00,,,-99.99,,2013-01-09 19:53:00,
2013-01-09 13:03:00,35.0,-99.9,-100.00,North,0,0.0,0.0,-999,0.00,,,-99.99,,2013-01-09 20:03:00,
2013-01-09 13:12:00,35.0,-99.9,-100.00,North,0,0.0,0.0,-999,0.00,,,-99.99,,2013-01-09 20:12:00,
2013-01-09 13:23:00,37.0,-99.9,-100.00,SW,219,1.0,3.0,-999,0.00,,,-99.99,,2013-01-09 20:23:00,
2013-01-09 13:33:00,36.0,-99.9,-100.00,West,263,1.0,6.0,-999,0.00,,,-99.99,,2013-01-09 20:33:00,
2013-01-09 13:43:00,36.0,-99.9,-100.00,West,263,1.0,6.0,-999,0.00,,,-99.99,,2013-01-09 20:43:00,
2013-01-09 13:53:00,37.0,-99.9,-100.00,SW,231,2.0,5.0,-999,0.00,,,-99.99,,2013-01-09 20:53:00,
2013-01-09 14:04:00,37.0,-99.9,-100.00,WSW,243,5.0,6.0,-999,0.00,,,-99.99,,2013-01-09 21:04:00,
2013-01-09 14:13:00,37.0,-99.9,-100.00,WSW,243,5.0,6.0,-999,0.00,,,-99.99,,2013-01-09 21:13:00,
2013-01-09 14:23:00,37.0,-99.9,-100.00,SSW,201,5.0,6.0,-999,0.00,,,-99.99,,2013-01-09 21:23:00,
2013-01-09 14:33:00,37.0,-99.9,-100.00,WSW,243,3.0,6.0,-999,0.00,,,-99.99,,2013-01-09 21:33:00,
2013-01-09 14:43:00,37.0,-99.9,-100.00,WSW,243,3.0,6.0,-999,0.00,,,-99.99,,2013-01-09 21:43:00,
2013-01-09 14:53:00,38.0,-99.9,-100.00,North,0,0.0,0.0,-999,0.00,,,-99.99,,2013-01-09 21:53:00,
2013-01-09 15:03:00,39.0,-99.9,-100.00,North,0,0.0,0.0,-999,0.00,,,-99.99,,2013-01-09 22:03:00,
2013-01-09 15:13:00,39.0,-99.9,-100.00,North,0,0.0,0.0,-999,0.00,,,-99.99,,2013-01-09 22:13:00,
2013-01-09 15:23:00,38.0,-99.9,-100.00,North,0,0.0,0.0,-999,0.00,,,-99.99,,2013-01-09 22:23:00,
2013-01-09 15:33:00,38.0,-99.9,-100.00,North,0,0.0,0.0,-999,0.00,,,-99.99,,2013-01-09 22:33:00,
2013-01-09 15:43:00,38.0,-99.9,-100.00,North,0,0.0,0.0,-999,0.00,,,-99.99,,2013-01-09 22:43:00,
2013-01-09 15:53:00,39.0,-99.9,-100.00,North,0,0.0,0.0,-999,0.00,,,-99.99,,2013-01-09 22:53:00,
2013-01-09 16:03:00,40.0,-99.9,-100.00,North,0,0.0,0.0,-999,0.00,,,-99.99,,2013-01-09 23:03:00,
2013-01-09 16:13:00,38.0,-99.9,-100.00,North,0,0.0,0.0,-999,0.00,,,-99.99,,2013-01-09 23:13:00,
2013-01-09 16:23:00,38.0,-99.9,-100.00,North,0,0.0,0.0,-999,0.00,,,-99.99,,2013-01-09 23:23:00,
2013-01-09 16:33:00,39.0,-99.9,-100.00,North,0,0.0,0.0,-999,0.00,,,-99.99,,2013-01-09 23:33:00,
2013-01-09 16:43:00,39.0,-99.9,-100.00,North,0,0.0,0.0,-999,0.00,,,-99.99,,2013-01-09 23:43:00,
2013-01-09 16:53:00,37.0,-99.9,-100.00,North,0,0.0,0.0,-999,0.00,,,-99.99,,2013-01-09 23:53:00,
2013-01-09 17:03:00,37.0,-99.9,-100.00,North,0,0.0,0.0,-999,0.00,,,-99.99,,2013-01-10 00:03:00,
2013-01-09 17:12:00,37.0,-99.9,-100.00,North,0,0.0,0.0,-999,0.00,,,-99.99,,2013-01-10 00:12:00,
2013-01-09 17:23:00,37.0,-99.9,-100.00,North,0,0.0,0.0,-999,0.00,,,-99.99,,2013-01-10 00:23:00,
2013-01-09 17:33:00,37.0,-99.9,-100.00,North,0,0.0,0.0,-999,0.00,,,-99.99,,2013-01-10 00:33:00,
2013-01-09 17:43:00,37.0,-99.9,-100.00,North,0,0.0,0.0,-999,0.00,,,-99.99,,2013-01-10 00:43:00,
2013-01-09 17:53:00,39.0,-99.9,-100.00,North,0,0.0,0.0,-999,0.00,,,-99.99,,2013-01-10 00:53:00,
2013-01-09 18:03:00,38.0,-99.9,-100.00,North,0,0.0,0.0,-999,0.00,,,-99.99,,2013-01-10 01:03:00,
2013-01-09 18:12:00,38.0,-99.9,-100.00,North,0,0.0,0.0,-999,0.00,,,-99.99,,2013-01-10 01:12:00,
2013-01-09 18:23:00,37.0,-99.9,-100.00,SSW,193,1.0,4.0,-999,0.00,,,-99.99,,2013-01-10 01:23:00,
2013-01-09 18:33:00,38.0,-99.9,-100.00,North,0,0.0,0.0,-999,0.00,,,-99.99,,2013-01-10 01:33:00,
2013-01-09 18:43:00,38.0,-99.9,-100.00,North,0,0.0,0.0,-999,0.00,,,-99.99,,2013-01-10 01:43:00,
2013-01-09 18:53:00,37.0,-99.9,-100.00,North,0,0.0,0.0,-999,0.00,,,-99.99,,2013-01-10 01:53:00,
2013-01-09 19:03:00,38.0,-99.9,-100.00,North,0,0.0,0.0,-999,0.00,,,-99.99,,2013-01-10 02:03:00,
2013-01-09 19:13:00,38.0,-99.9,-100.00,North,0,0.0,0.0,-999,0.00,,,-99.99,,2013-01-10 02:13:00,
2013-01-09 19:22:00,39.0,-99.9,-100.00,North,0,0.0,0.0,-999,0.00,,,-99.99,,2013-01-10 02:22:00,
2013-01-09 19:33:00,40.0,-99.9,-100.00,North,0,0.0,0.0,-999,0.00,,,-99.99,,2013-01-10 02:33:00,
2013-01-09 19:43:00,40.0,-99.9,-100.00,North,0,0.0,0.0,-999,0.00,,,-99.99,,2013-01-10 02:43:00,
2013-01-09 19:53:00,40.0,-99.9,-100.00,North,0,0.0,0.0,-999,0.00,,,-99.99,,2013-01-10 02:53:00,
2013-01-09 20:03:00,39.0,-99.9,-100.00,North,0,0.0,0.0,-999,0.00,,,-99.99,,2013-01-10 03:03:00,
2013-01-09 20:12:00,39.0,-99.9,-100.00,North,0,0.0,0.0,-999,0.00,,,-99.99,,2013-01-10 03:12:00,
2013-01-09 20:22:00,37.0,-99.9,-100.00,SE,146,0.0,1.0,-999,0.00,,,-99.99,,2013-01-10 03:22:00,
2013-01-09 20:33:00,37.0,-99.9,-100.00,North,0,0.0,0.0,-999,0.00,,,-99.99,,2013-01-10 03:33:00,
2013-01-09 20:43:00,37.0,-99.9,-100.00,North,0,0.0,0.0,-999,0.00,,,-99.99,,2013-01-10 03:43:00,
2013-01-09 20:53:00,37.0,-99.9,-100.00,North,0,0.0,0.0,-999,0.00,,,-99.99,,2013-01-10 03:53:00,
2013-01-09 21:03:00,37.0,-99.9,-100.00,North,0,0.0,0.0,-999,0.00,,,-99.99,,2013-01-10 04:03:00,
2013-01-09 21:12:00,37.0,-99.9,-100.00,North,0,0.0,0.0,-999,0.00,,,-99.99,,2013-01-10 04:12:00,
2013-01-09 21:22:00,37.0,-99.9,-100.00,North,0,0.0,0.0,-999,0.00,,,-99.99,,2013-01-10 04:22:00,
2013-01-09 21:32:00,37.0,-99.9,-100.00,North,0,0.0,0.0,-999,0.00,,,-99.99,,2013-01-10 04:32:00,
2013-01-09 21:43:00,37.0,-99.9,-100.00,North,0,0.0,0.0,-999,0.00,,,-99.99,,2013-01-10 04:43:00,
2013-01-09 21:53:00,39.0,-99.9,-100.00,North,0,0.0,0.0,-999,0.00,,,-99.99,,2013-01-10 04:53:00,
2013-01-09 22:03:00,39.0,-99.9,-100.00,North,0,0.0,0.0,-999,0.00,,,-99.99,,2013-01-10 05:03:00,
2013-01-09 22:12:00,39.0,-99.9,-100.00,North,0,0.0,0.0,-999,0.00,,,-99.99,,2013-01-10 05:12:00,
2013-01-09 22:23:00,39.0,-99.9,-100.00,WSW,246,5.0,6.0,-999,0.00,,,-99.99,,2013-01-10 05:23:00,
2013-01-09 22:33:00,39.0,-99.9,-100.00,WSW,248,6.0,9.0,-999,0.00,,,-99.99,,2013-01-10 05:33:00,
2013-01-09 22:43:00,39.0,-99.9,-100.00,WSW,248,6.0,9.0,-999,0.00,,,-99.99,,2013-01-10 05:43:00,
2013-01-09 22:53:00,39.0,-99.9,-100.00,SW,222,6.0,7.0,-999,0.00,,,-99.99,,2013-01-10 05:53:00,
2013-01-09 23:03:00,38.0,-99.9,-100.00,SSW,210,5.0,6.0,-999,0.00,,,-99.99,,2013-01-10 06:03:00,
2013-01-09 23:12:00,38.0,-99.9,-100.00,SSW,210,5.0,6.0,-999,0.00,,,-99.99,,2013-01-10 06:12:00,
2013-01-09 23:22:00,38.0,-99.9,-100.00,North,0,0.0,0.0,-999,0.00,,,-99.99,,2013-01-10 06:22:00,
2013-01-09 23:32:00,38.0,-99.9,-100.00,North,0,0.0,0.0,-999,0.00,,,-99.99,,2013-01-10 06:32:00,
2013-01-09 23:42:00,38.0,-99.9,-100.00,North,0,0.0,0.0,-999,0.00,,,-99.99,,2013-01-10 06:42:00,
2013-01-09 23:53:00,37.0,-99.9,-100.00,North,0,0.0,0.0,-999,0.00,,,-99.99,,2013-01-10 06:53:00,